AirNav   Pilot Hours Calculator
 
 485 users online  

T90 Chambers County-Winnie Stowell Airport
Winnie/Stowell, Texas, USA

GOING TO WINNIE/STOWELL?


FAA INFORMATION EFFECTIVE 22 APRIL 2021

Location

FAA Identifier: T90
Lat/Long: 29-49-07.8750N 094-25-51.5250W
29-49.131250N 094-25.858750W
29.8188542,-94.4309792
(estimated)
Elevation: 24.2 ft. / 7.4 m (surveyed)
Variation: 05E (1985)
From city: 3 miles W of central business district of the associated city
Time zone: UTC -5 (UTC -6 during Standard Time)
Zip code: 77665

Airport Operations

Airport use: Open to the public
Activation date: 07/1988
Control tower: no
ARTCC: HOUSTON CENTER
FSS: MONTGOMERY COUNTY FLIGHT SERVICE STATION
NOTAMs facility: CXO (NOTAM-D service available)
Attendance: UNATNDD
Wind indicator: lighted
Segmented circle: yes
Lights: MIRL RWY 17/35 PRESET LOW INTST DUSK-2330, TO INCR INTST OR ACTVT AFT 2330 - CTAF.
Beacon: white-green (lighted land airport)
Operates sunset to sunrise.

Airport Communications

CTAF: 122.9
WX AWOS-3PT at BMT (19 nm NE): 118.425 (409-866-2832)

Nearby radio navigation aids

VOR radial/distance  VOR name  Freq  Var
SBIr284/22.0SABINE PASS VOR/DME115.4007E
BPTr244/22.9BEAUMONT VOR/DME114.5007E
MHFr038/23.2TRINITY VOR/DME113.6007E
DASr148/24.9DAISETTA VORTAC116.9005E

 
NDB name  Hdg/Dist  Freq  Var  ID
GOODHUE210/18.936807EGDE --. -.. .

Airport Services

Fuel available: 100LL JET-A
FUEL SELF-SVC; MAJOR CREDIT CARDS ACCEPTED.
Parking: tiedowns

Runway Information

Runway 17/35

Dimensions: 3600 x 75 ft. / 1097 x 23 m
Surface: asphalt, in good condition
Runway edge lights: medium intensity
RUNWAY 17  RUNWAY 35
Latitude: 29-49.428167N29-48.834333N
Longitude: 094-25.866333W094-25.851167W
Elevation: 24.2 ft.22.6 ft.
Traffic pattern: leftleft
Runway heading: 174 magnetic, 179 true354 magnetic, 359 true
Markings: nonprecision, in good conditionnonprecision, in good condition
Visual slope indicator: 2-light PAPI on left (3.00 degrees glide path)2-light PAPI on left (3.00 degrees glide path)
Touchdown point: yes, no lightsyes, no lights
Obstructions: 71 ft. trees, 1574 ft. from runway, 245 ft. left of centerline, 19:1 slope to clear52 ft. trees, 1948 ft. from runway, 140 ft. left of centerline, 34:1 slope to clear

Airport Ownership and Management from official FAA records

Ownership: Publicly-owned
Owner: CHAMBERS CO COMMISSIONERS CT
404 WASHINGTON ST PO BOX 939
ANAHUAC, TX 77514
Phone 409-267-2400
Manager: KELLEY TRAHAN
PO BOX 938
ANAHUAC, TX 77514
Phone 409-267-2719

Airport Operational Statistics

Aircraft based on the field: 8
Single engine airplanes: 7
Jet airplanes: 1
    
Aircraft operations: avg 115/week *
75% local general aviation
25% transient general aviation
* for 12-month period ending 29 September 2016

Additional Remarks

FOR CD CTC HOUSTON APCH AT 281-443-5844. TO CNL IFR CALL 281-443-5888.

Instrument Procedures

There are no published instrument procedures at T90.

Some nearby airports with instrument procedures:

T00 - Chambers County Airport (12 nm W)
KBMT - Beaumont Municipal Airport (19 nm NE)
T78 - Liberty Municipal Airport (21 nm NW)
54T - RWJ Airpark (22 nm W)
KBPT - Jack Brooks Regional Airport (23 nm E)
 
Loc | Ops | Rwys | IFR | FBO | Links
Com | Nav | Svcs | Stats | Notes
Area around T90 (Chambers County-Winnie Stowell Airport)
 
Road maps at: MapQuest Bing Google
 
Aerial photo
WARNING: Photo may not be current or correct
Aerial photo of T90 (Chambers County-Winnie Stowell Airport)
Photo by Danny Schnautz
Photo taken 07-Nov-2020
looking northeast from 2,000

Do you have a better or more recent aerial photo of Chambers County-Winnie Stowell Airport that you would like to share? If so, please send us your photo.

 
Sectional chart

 
Airport distance calculator
Flying to Chambers County-Winnie Stowell Airport? Find the distance to fly.

From to T90

Sunrise and sunset
Times for 18-May-2021
 Local
(UTC-5)
 Zulu
(UTC)
Morning civil twilight05:5810:58
Sunrise06:2411:24
Sunset20:0401:04
Evening civil twilight20:3101:31

Current date and time
Zulu (UTC)  18-May-2021 05:38:48
Local (UTC-5)  18-May-2021 00:38:48
 
METAR
KBMT 
19nm NE 
180515Z AUTO 32008KT 10SM CLR 20/19 A2985 RMK AO2 T02010191
KBPT 
22nm E 
180453Z AUTO 14006KT 10SM CLR 21/19 A2982 RMK AO2 SLP098 T02060194
KT41 
34nm W 
180515Z AUTO 28006KT 10SM CLR 19/19 A2983 RMK AO2 T0192////
KORG 
36nm NE 
180515Z AUTO 12005KT 10SM CLR 22/20 A2987 RMK AO2 T02200204
TAF
KBPT 
22nm E 
180255Z 1803/1824 17007KT P6SM FEW015 FM180600 15010KT P6SM VCSH BKN015 FM181200 15010KT P6SM VCTS BKN035CB TEMPO 1814/1818 2SM TSRA BR OVC025CB FM181800 15014G22KT P6SM BKN025 PROB30 1818/1824 1SM TSRA OVC008CB
NOTAMs
Click for the latest NOTAMs
NOTAMs are issued by the DoD/FAA and will open in a separate window not controlled by AirNav.

 

 
 

FBO, Fuel Providers, and Aircraft Ground Support

  
 Business Name 
 
 Contact 
 
 Services / Description 
 
Fuel Prices
 
Comments
  
Chambers County-Winnie Stowell Airport 409-267-2719
no information available

If you are affiliated with Chambers County-Winnie Stowell Airport and would like to show here your services, contact info, web link, logo, and more, click here
100LL Jet A
SS $4.00 $3.40 
 Updated 30-Mar-2021
 
   write
SS=Self service
Update Fuel Prices
 

Would you like to see your business listed on this page?

 If your business provides an interesting product or service to pilots, flight crews, aircraft, or users of the Chambers County-Winnie Stowell Airport, you should consider listing it here.  To start the listing process, click on the button below
 
Add a business
 

Other Pages about Chambers County-Winnie Stowell Airport

www.co.chambers.tx.us/...
 
Update a link
 
Copyright © AirNav, LLC. All rights reserved. Privacy Policy  Contact